KMXO

Monticello Regional Airport

Monticello, Iowa, USA
METAR KMXO 170055Z AUTO 31008KT 10SM CLR 02/M00 A3017 RMK AO2
Observed Flight Rules
Dec-17 @ 00:55 UTC (18 minutes ago) Visual Flight Rules
Wind Visibility Clouds
310° at 8 knots 10 miles
  • Clear skies
Temperatures Readings
Current 2°C / 36°F
Dewpoint 0°C / 32°F
Humidity 87%
Altimeter 30.17" Hg
Pressure 1022 hPa
Elevation 259
METAR KMXO 170055Z AUTO 31008KT 10SM CLR 02/M00 A3017 RMK AO2
Observed Flight Rules
Dec-17 @ 00:55 UTC
(18 minutes ago)
VFR
Wind Visibility
310° at 8 knots 10 miles
Clouds
  • Clear skies
Temperature Dewpoint
2°C / 36°F 0°C / 32°F
Humidity Altimeter Pressure
87% 30.17" Hg 1022 hPa